createdAt,value
2022-10-19T00:01:16.023Z,35.13
2022-10-19T00:05:17.978Z,32.53
2022-10-19T00:09:19.648Z,28.57
2022-10-19T00:13:20.739Z,29.97
2022-10-19T00:17:21.717Z,27.93
2022-10-19T00:21:23.281Z,27.47
2022-10-19T00:25:24.211Z,26.13
2022-10-19T00:29:25.276Z,27.53
2022-10-19T00:33:26.225Z,26.10
2022-10-19T00:37:28.799Z,27.20
2022-10-19T00:41:31.893Z,24.20
2022-10-19T00:45:32.843Z,25.97
2022-10-19T00:49:37.623Z,29.80
2022-10-19T00:53:39.085Z,29.87
2022-10-19T00:57:40.246Z,23.27
2022-10-19T01:01:44.258Z,22.87
2022-10-19T01:05:45.343Z,26.10
2022-10-19T01:09:46.373Z,22.40
2022-10-19T01:14:20.490Z,24.53
2022-10-19T01:18:42.040Z,25.33
2022-10-19T01:23:05.911Z,23.40
2022-10-19T01:27:29.186Z,25.33
2022-10-19T01:31:52.437Z,22.47
2022-10-19T01:36:09.634Z,23.13
2022-10-19T01:40:14.311Z,25.37
2022-10-19T01:44:30.917Z,23.83
2022-10-19T01:48:35.706Z,21.23
2022-10-19T01:52:39.868Z,21.73
2022-10-19T01:56:44.126Z,20.33
2022-10-19T02:00:48.219Z,20.40
2022-10-19T02:04:51.346Z,19.77
2022-10-19T02:08:53.457Z,17.87
2022-10-19T02:12:55.199Z,19.07
2022-10-19T02:17:13.379Z,19.50
2022-10-19T02:21:14.914Z,21.97
2022-10-19T02:25:16.226Z,23.33
2022-10-19T02:29:17.587Z,21.90
2022-10-19T02:33:18.751Z,21.00
2022-10-19T02:37:22.127Z,19.40
2022-10-19T02:41:29.201Z,22.30
2022-10-19T02:45:37.382Z,20.87
2022-10-19T02:49:38.748Z,19.07
2022-10-19T02:53:39.952Z,21.63
2022-10-19T02:57:40.911Z,22.07
2022-10-19T03:01:41.952Z,22.90
2022-10-19T03:05:42.928Z,21.13
2022-10-19T03:09:44.197Z,18.63
2022-10-19T03:13:45.125Z,22.70
2022-10-19T03:17:46.149Z,23.73
2022-10-19T03:21:47.183Z,18.40
2022-10-19T03:25:48.157Z,17.70
2022-10-19T03:29:49.144Z,18.17
2022-10-19T03:33:50.430Z,14.03
2022-10-19T03:37:51.362Z,14.27
2022-10-19T03:41:52.311Z,19.50
2022-10-19T03:45:53.319Z,27.20
2022-10-19T03:49:54.465Z,19.57
2022-10-19T03:53:58.469Z,25.13
2022-10-19T03:57:59.511Z,23.23
2022-10-19T04:02:00.684Z,26.67
2022-10-19T04:06:10.865Z,22.20
2022-10-19T04:10:11.751Z,25.37
2022-10-19T04:14:22.854Z,25.50
2022-10-19T04:18:18.436Z,22.33
2022-10-19T04:22:19.301Z,20.63
2022-10-19T04:26:20.433Z,18.43
2022-10-19T04:30:21.423Z,18.40
2022-10-19T04:34:22.407Z,21.13
2022-10-19T04:38:23.285Z,21.07
2022-10-19T04:42:24.261Z,21.83
2022-10-19T04:46:26.791Z,23.57
2022-10-19T04:50:27.780Z,27.60
2022-10-19T04:54:28.727Z,28.17
2022-10-19T04:58:29.677Z,24.33
2022-10-19T05:02:30.708Z,26.60
2022-10-19T05:06:32.090Z,19.83
2022-10-19T05:10:33.204Z,20.20
2022-10-19T05:14:35.785Z,16.50
2022-10-19T05:18:36.942Z,17.30
2022-10-19T05:22:38.868Z,19.10
2022-10-19T05:26:39.861Z,17.70
2022-10-19T05:30:42.551Z,16.37
2022-10-19T05:34:43.656Z,17.10
2022-10-19T05:38:46.785Z,17.53
2022-10-19T05:42:47.886Z,21.07
2022-10-19T05:46:50.766Z,21.70
2022-10-19T05:50:53.737Z,23.90
2022-10-19T05:54:55.859Z,20.63
2022-10-19T05:58:59.293Z,20.70
2022-10-19T06:03:00.270Z,33.27
2022-10-19T06:07:01.394Z,28.87
2022-10-19T06:11:14.415Z,42.73
2022-10-19T06:15:15.898Z,21.47
2022-10-19T06:19:16.953Z,21.80
2022-10-19T06:23:18.335Z,20.60
2022-10-19T06:27:19.534Z,16.13
2022-10-19T06:31:20.717Z,18.30
2022-10-19T06:35:21.936Z,17.93
2022-10-19T06:39:23.144Z,17.80
2022-10-19T06:43:25.013Z,21.00
2022-10-19T06:47:27.906Z,21.13
2022-10-19T06:51:31.299Z,20.67
2022-10-19T06:55:32.281Z,20.67
2022-10-19T06:59:33.485Z,20.67
2022-10-19T07:03:36.032Z,19.23
2022-10-19T07:07:38.024Z,17.87
2022-10-19T07:11:45.556Z,17.73
2022-10-19T07:15:43.807Z,16.40
2022-10-19T07:19:44.942Z,15.47
2022-10-19T07:23:46.855Z,17.73
2022-10-19T07:27:47.822Z,16.03
2022-10-19T07:31:48.980Z,17.53
2022-10-19T07:35:50.098Z,17.90
2022-10-19T07:39:51.181Z,18.30
2022-10-19T07:43:53.200Z,18.57
2022-10-19T07:47:54.156Z,19.53
2022-10-19T07:51:55.920Z,18.10
2022-10-19T07:56:06.790Z,21.87
2022-10-19T08:00:09.897Z,21.40
2022-10-19T08:04:49.014Z,20.73
2022-10-19T08:08:14.183Z,19.80
2022-10-19T08:12:15.777Z,21.90
2022-10-19T08:16:24.454Z,20.93
2022-10-19T08:20:25.470Z,19.37
2022-10-19T08:24:26.582Z,21.23
2022-10-19T08:28:27.791Z,18.70
2022-10-19T08:32:28.945Z,18.63
2022-10-19T08:36:31.875Z,19.27
2022-10-19T08:40:33.353Z,18.67
2022-10-19T08:44:55.270Z,17.70
2022-10-19T08:48:56.577Z,18.53
2022-10-19T08:53:18.919Z,17.20
2022-10-19T08:57:43.882Z,18.30
2022-10-19T09:02:10.079Z,16.80
2022-10-19T09:06:26.239Z,16.93
2022-10-19T09:10:31.276Z,16.30
2022-10-19T09:14:36.288Z,17.43
2022-10-19T09:18:37.248Z,17.90
2022-10-19T09:22:40.423Z,17.40
2022-10-19T09:26:51.378Z,17.23
2022-10-19T09:30:55.728Z,17.03
2022-10-19T09:35:02.917Z,18.27
2022-10-19T09:39:04.294Z,18.30
2022-10-19T09:43:09.408Z,19.13
2022-10-19T09:47:36.211Z,19.20
2022-10-19T09:51:52.301Z,18.77
2022-10-19T09:56:00.435Z,19.40
2022-10-19T10:00:01.721Z,18.57
2022-10-19T10:04:07.687Z,17.53
2022-10-19T10:08:18.403Z,17.60
2022-10-19T10:12:22.129Z,20.43
2022-10-19T10:16:26.207Z,18.70
2022-10-19T10:20:29.795Z,19.53
2022-10-19T10:24:33.398Z,16.23
2022-10-19T10:28:38.263Z,18.43
2022-10-19T10:32:45.771Z,14.53
2022-10-19T10:36:49.681Z,16.20
2022-10-19T10:41:03.677Z,15.10
2022-10-19T10:45:11.517Z,14.27
2022-10-19T10:49:31.219Z,13.20
2022-10-19T10:53:39.097Z,13.07
2022-10-19T10:57:47.061Z,11.23
2022-10-19T11:02:13.745Z,12.20
2022-10-19T11:06:16.744Z,10.97
2022-10-19T11:10:36.901Z,9.33
2022-10-19T11:15:18.428Z,9.43
2022-10-19T11:19:35.283Z,9.77
2022-10-19T11:23:49.335Z,9.80
2022-10-19T11:28:11.163Z,8.50
2022-10-19T11:32:22.417Z,9.13
2022-10-19T11:36:39.361Z,8.47
2022-10-19T11:41:17.456Z,8.60
2022-10-19T11:45:27.064Z,7.70
2022-10-19T11:49:32.090Z,8.87
2022-10-19T11:53:49.139Z,7.67
2022-10-19T11:58:19.636Z,7.53
2022-10-19T12:02:59.371Z,9.77
2022-10-19T12:07:07.001Z,8.67
2022-10-19T12:11:41.265Z,7.57
2022-10-19T12:15:46.057Z,7.87
2022-10-19T12:19:51.011Z,9.17
2022-10-19T12:23:54.150Z,9.27
2022-10-19T12:27:56.945Z,8.70
2022-10-19T12:32:00.523Z,8.93
2022-10-19T12:36:23.942Z,9.60
2022-10-19T12:40:37.901Z,8.73
2022-10-19T12:44:43.089Z,10.33
2022-10-19T12:48:44.107Z,9.80
2022-10-19T12:52:48.672Z,8.50
2022-10-19T12:56:53.157Z,8.40
2022-10-19T13:01:03.854Z,11.17
2022-10-19T13:05:05.829Z,9.47
2022-10-19T13:09:09.164Z,8.10
2022-10-19T13:13:30.951Z,7.43
2022-10-19T13:17:39.837Z,8.03
2022-10-19T13:21:47.401Z,8.67
2022-10-19T13:25:52.198Z,7.87
2022-10-19T13:29:53.840Z,8.37
2022-10-19T13:33:55.497Z,7.70
2022-10-19T13:38:18.652Z,7.87
2022-10-19T13:42:26.269Z,7.30
2022-10-19T13:46:33.959Z,7.00
2022-10-19T13:50:47.883Z,7.93
2022-10-19T13:55:12.635Z,8.00
2022-10-19T13:59:35.545Z,8.27
2022-10-19T14:03:58.310Z,7.13
2022-10-19T14:08:23.911Z,7.50
2022-10-19T14:12:28.460Z,8.20
2022-10-19T14:16:29.605Z,8.20
2022-10-19T14:20:34.230Z,7.87
2022-10-19T14:24:36.293Z,7.50
2022-10-19T14:28:39.261Z,8.77
2022-10-19T14:36:47.767Z,8.47
2022-10-19T14:40:49.043Z,8.00
2022-10-19T14:44:50.081Z,7.60
2022-10-19T14:48:53.518Z,7.80
2022-10-19T14:53:04.024Z,8.23
2022-10-19T14:57:15.311Z,7.97
2022-10-19T15:01:17.912Z,7.30
2022-10-19T15:05:22.408Z,7.23
2022-10-19T15:09:43.712Z,8.27
2022-10-19T15:13:41.013Z,8.57
2022-10-19T15:18:00.993Z,7.17
2022-10-19T15:22:25.948Z,6.07
2022-10-19T15:26:29.255Z,5.70
2022-10-19T15:30:32.338Z,6.50
2022-10-19T15:34:35.081Z,7.17
2022-10-19T15:38:38.919Z,6.80
2022-10-19T15:42:45.339Z,6.93
2022-10-19T15:46:51.977Z,5.67
2022-10-19T15:50:56.237Z,5.77
2022-10-19T15:54:59.605Z,6.10
2022-10-19T15:59:04.317Z,6.50
2022-10-19T16:03:05.489Z,6.43
2022-10-19T16:07:08.419Z,5.40
2022-10-19T16:11:13.383Z,7.53
2022-10-19T16:15:17.881Z,8.97
2022-10-19T16:19:18.883Z,8.90
2022-10-19T16:27:21.321Z,6.67
2022-10-19T16:31:23.483Z,7.23
2022-10-19T16:35:25.008Z,7.83
2022-10-19T16:39:26.319Z,7.47
2022-10-19T16:43:28.960Z,7.87
2022-10-19T16:47:30.137Z,8.57
2022-10-19T16:51:37.309Z,8.90
2022-10-19T16:55:39.984Z,11.30
2022-10-19T16:59:42.163Z,13.20
2022-10-19T17:03:44.945Z,14.87
2022-10-19T17:07:46.386Z,16.03
2022-10-19T17:11:48.471Z,15.50
2022-10-19T17:15:49.840Z,13.70
2022-10-19T17:19:50.854Z,13.83
2022-10-19T17:23:53.938Z,13.63
2022-10-19T17:27:55.047Z,17.73
2022-10-19T17:31:57.261Z,16.15
2022-10-19T17:36:07.055Z,15.17
2022-10-19T17:40:09.143Z,15.83
2022-10-19T17:44:10.625Z,16.47
2022-10-19T17:48:11.997Z,15.60
2022-10-19T17:52:13.726Z,16.50
2022-10-19T17:56:18.757Z,14.50
2022-10-19T18:00:21.645Z,14.87
2022-10-19T18:04:22.867Z,14.03
2022-10-19T18:08:24.401Z,15.35
2022-10-19T18:12:26.365Z,13.97
2022-10-19T18:16:34.367Z,16.10
2022-10-19T18:20:41.113Z,16.43
2022-10-19T18:24:42.735Z,16.07
2022-10-19T18:28:43.848Z,19.20
2022-10-19T18:32:49.763Z,17.97
2022-10-19T18:36:52.129Z,16.83
2022-10-19T18:40:53.837Z,16.27
2022-10-19T18:44:57.429Z,15.37
2022-10-19T18:49:07.284Z,16.70
2022-10-19T18:53:09.938Z,16.52
2022-10-19T18:57:12.739Z,19.33
2022-10-19T19:01:16.787Z,16.30
2022-10-19T19:05:17.834Z,16.83
2022-10-19T19:09:19.603Z,17.00
2022-10-19T19:13:21.287Z,17.00
2022-10-19T19:17:22.464Z,18.30
2022-10-19T19:21:26.350Z,20.93
2022-10-19T19:25:27.836Z,18.40
2022-10-19T19:29:29.859Z,23.43
2022-10-19T19:33:31.388Z,24.30
2022-10-19T19:37:34.912Z,19.27
2022-10-19T19:41:36.483Z,19.63
2022-10-19T19:45:38.309Z,18.57
2022-10-19T19:49:40.111Z,19.70
2022-10-19T19:53:41.501Z,20.20
2022-10-19T19:57:43.120Z,21.80
2022-10-19T20:01:44.778Z,20.60
2022-10-19T20:05:46.375Z,23.23
2022-10-19T20:09:47.492Z,22.93
2022-10-19T20:13:49.123Z,22.67
2022-10-19T20:17:50.347Z,22.83
2022-10-19T20:21:52.565Z,22.00
2022-10-19T20:25:55.737Z,21.80
2022-10-19T20:29:58.077Z,22.40
2022-10-19T20:33:59.056Z,19.07
2022-10-19T20:38:00.094Z,23.23
2022-10-19T20:42:01.056Z,19.40
2022-10-19T20:46:05.277Z,20.43
2022-10-19T20:50:07.888Z,19.17
2022-10-19T20:54:12.178Z,22.17
2022-10-19T20:58:13.342Z,19.37
2022-10-19T21:02:14.436Z,19.83
2022-10-19T21:06:16.543Z,21.20
2022-10-19T21:10:17.621Z,19.13
2022-10-19T21:14:25.266Z,19.90
2022-10-19T21:18:24.480Z,22.13
2022-10-19T21:22:25.456Z,20.17
2022-10-19T21:26:29.983Z,18.43
2022-10-19T21:30:30.987Z,18.63
2022-10-19T21:34:32.132Z,21.03
2022-10-19T21:38:33.838Z,23.10
2022-10-19T21:42:35.085Z,20.17
2022-10-19T21:46:36.048Z,17.73
2022-10-19T21:50:37.051Z,17.10
2022-10-19T21:54:38.078Z,15.63
2022-10-19T21:58:47.863Z,14.00
2022-10-19T22:02:48.993Z,13.63
2022-10-19T22:06:50.480Z,12.90
2022-10-19T22:10:52.449Z,12.67
2022-10-19T22:14:53.743Z,12.93
2022-10-19T22:18:54.867Z,10.80
2022-10-19T22:22:55.828Z,13.20
2022-10-19T22:26:56.918Z,10.77
2022-10-19T22:30:58.513Z,10.47
2022-10-19T22:34:59.464Z,10.60
2022-10-19T22:39:00.426Z,11.17
2022-10-19T22:43:04.893Z,10.67
2022-10-19T22:47:04.437Z,10.10
2022-10-19T22:51:05.708Z,11.20
2022-10-19T22:55:07.332Z,9.63
2022-10-19T22:59:08.934Z,10.37
2022-10-19T23:03:10.253Z,10.20
2022-10-19T23:11:13.362Z,10.63
2022-10-19T23:15:14.519Z,9.60
2022-10-19T23:19:15.445Z,9.87
2022-10-19T23:23:16.531Z,10.10
2022-10-19T23:27:17.476Z,9.97
2022-10-19T23:31:25.443Z,10.50
2022-10-19T23:35:26.405Z,10.53
2022-10-19T23:39:27.459Z,11.47
2022-10-19T23:43:28.887Z,9.60
2022-10-19T23:47:29.963Z,10.97
2022-10-19T23:51:30.936Z,11.03
2022-10-19T23:55:31.912Z,12.10
2022-10-19T23:59:33.524Z,11.13
